Terminal Aerodrome Forecast
Issued by NWS

Home | Current Version | Previous Version | Text Only | Print | Product List | Glossary On
Versions: 1 2 3 4 5 6 7 8 9 10 11 12 13 14
000
FTUS45 KRIW 300528
TAFCPR
TAF
KCPR 300528Z 3006/3106 25008KT P6SM SCT110 BKN200
     FM301500 24014G24KT P6SM SCT110 BKN200
     FM302300 24011KT P6SM VCSH SCT060 BKN090
     FM310300 05012KT P6SM VCSH BKN035
     FM310500 04013KT P6SM VCSH OVC024=

USA.gov is the U.S. government's official web portal to all federal, state and local government web resources and services.